createdAt,value
2018-08-28T00:01:08.181Z,98.38
2018-08-28T00:03:36.335Z,97.86
2018-08-28T00:06:04.565Z,98.04
2018-08-28T00:08:32.778Z,98.37
2018-08-28T00:11:00.929Z,98.74
2018-08-28T00:13:29.149Z,98.53
2018-08-28T00:15:57.342Z,98.69
2018-08-28T00:18:25.487Z,98.89
2018-08-28T00:20:53.693Z,98.41
2018-08-28T00:23:21.891Z,98.19
2018-08-28T00:25:50.186Z,98.21
2018-08-28T00:28:18.336Z,98.20
2018-08-28T00:30:46.538Z,98.00
2018-08-28T00:33:14.688Z,98.30
2018-08-28T00:35:42.801Z,98.50
2018-08-28T00:38:11.008Z,98.37
2018-08-28T00:40:39.149Z,98.59
2018-08-28T00:43:08.268Z,98.53
2018-08-28T00:45:36.417Z,98.38
2018-08-28T00:48:04.536Z,98.44
2018-08-28T00:50:32.712Z,98.70
2018-08-28T00:53:00.862Z,98.29
2018-08-28T00:55:29.002Z,97.74
2018-08-28T00:57:57.124Z,98.08
2018-08-28T01:00:25.243Z,97.62
2018-08-28T01:02:53.385Z,97.69
2018-08-28T01:05:23.783Z,97.52
2018-08-28T01:07:52.485Z,97.74
2018-08-28T01:10:21.016Z,97.34
2018-08-28T01:12:49.138Z,97.07
2018-08-28T01:15:17.244Z,97.81
2018-08-28T01:17:45.405Z,97.62
2018-08-28T01:20:13.527Z,97.44
2018-08-28T01:22:41.630Z,97.73
2018-08-28T01:25:09.714Z,97.80
2018-08-28T01:27:37.860Z,97.31
2018-08-28T01:30:06.017Z,97.65
2018-08-28T01:32:34.160Z,97.23
2018-08-28T01:35:02.352Z,97.29
2018-08-28T01:37:30.470Z,97.28
2018-08-28T01:39:58.590Z,97.56
2018-08-28T01:42:26.716Z,97.13
2018-08-28T01:44:54.811Z,97.12
2018-08-28T01:47:23.139Z,97.58
2018-08-28T01:49:51.648Z,97.47
2018-08-28T01:52:20.218Z,97.72
2018-08-28T01:54:48.391Z,97.94
2018-08-28T01:57:16.525Z,97.70
2018-08-28T01:59:44.741Z,97.80
2018-08-28T02:02:12.906Z,98.05
2018-08-28T02:04:41.023Z,98.09
2018-08-28T02:07:09.151Z,98.01
2018-08-28T02:09:37.262Z,98.19
2018-08-28T02:12:05.349Z,98.68
2018-08-28T02:14:33.480Z,98.61
2018-08-28T02:17:01.617Z,98.72
2018-08-28T02:19:29.725Z,98.86
2018-08-28T02:21:57.852Z,98.68
2018-08-28T02:24:26.091Z,98.88
2018-08-28T02:26:54.214Z,99.32
2018-08-28T02:29:22.300Z,98.90
2018-08-28T02:31:50.395Z,98.58
2018-08-28T02:34:18.517Z,98.53
2018-08-28T02:36:46.628Z,98.87
2018-08-28T02:39:14.743Z,98.80
2018-08-28T02:41:42.854Z,98.73
2018-08-28T02:44:11.032Z,99.16
2018-08-28T02:46:39.245Z,99.62
2018-08-28T02:49:07.723Z,99.28
2018-08-28T02:51:37.264Z,99.24
2018-08-28T02:54:05.354Z,99.14
2018-08-28T02:56:33.456Z,98.93
2018-08-28T02:59:01.592Z,99.28
2018-08-28T03:01:29.720Z,99.31
2018-08-28T03:03:57.885Z,99.83
2018-08-28T03:06:27.551Z,100.00
2018-08-28T03:08:56.655Z,99.92
2018-08-28T03:11:24.795Z,99.62
2018-08-28T03:13:52.910Z,100.00
2018-08-28T03:16:21.053Z,99.59
2018-08-28T03:18:49.260Z,100.00
2018-08-28T03:21:17.358Z,99.93
2018-08-28T03:23:45.521Z,100.00
2018-08-28T03:26:13.651Z,100.00
2018-08-28T03:28:41.822Z,99.91
2018-08-28T03:31:09.972Z,99.52
2018-08-28T03:33:38.152Z,99.85
2018-08-28T03:36:06.275Z,99.42
2018-08-28T03:38:34.441Z,99.43
2018-08-28T03:41:02.512Z,99.11
2018-08-28T03:43:30.672Z,99.27
2018-08-28T03:45:58.786Z,99.02
2018-08-28T03:48:26.917Z,99.28
2018-08-28T03:50:55.008Z,99.25
2018-08-28T03:53:23.076Z,99.72
2018-08-28T03:55:51.224Z,99.77
2018-08-28T03:58:19.369Z,99.80
2018-08-28T04:00:47.699Z,99.94
2018-08-28T04:03:15.795Z,99.77
2018-08-28T04:05:43.978Z,99.58
2018-08-28T04:08:12.194Z,99.72
2018-08-28T04:10:40.292Z,99.10
2018-08-28T04:13:08.435Z,99.08
2018-08-28T04:15:36.608Z,99.50
2018-08-28T04:18:04.760Z,98.99
2018-08-28T04:20:32.911Z,99.31
2018-08-28T04:23:01.011Z,99.59
2018-08-28T04:25:29.100Z,99.56
2018-08-28T04:27:57.245Z,99.44
2018-08-28T04:30:25.416Z,99.79
2018-08-28T04:32:53.495Z,100.00
2018-08-28T04:35:21.664Z,100.00
2018-08-28T04:37:49.780Z,100.00
2018-08-28T04:40:18.048Z,100.00
2018-08-28T04:42:46.271Z,100.00
2018-08-28T04:45:14.405Z,100.00
2018-08-28T04:47:42.567Z,99.91
2018-08-28T04:50:10.701Z,100.00
2018-08-28T04:52:38.797Z,99.86
2018-08-28T04:55:06.958Z,100.00
2018-08-28T04:57:35.285Z,100.00
2018-08-28T05:00:04.768Z,100.00
2018-08-28T05:02:37.318Z,100.00
2018-08-28T05:05:07.795Z,100.00
2018-08-28T05:07:35.959Z,100.00
2018-08-28T05:10:04.512Z,100.00
2018-08-28T05:12:32.625Z,100.00
2018-08-28T05:15:00.760Z,100.00
2018-08-28T05:17:28.907Z,100.00
2018-08-28T05:19:57.063Z,100.00
2018-08-28T05:22:25.710Z,100.00
2018-08-28T05:24:53.977Z,100.00
2018-08-28T05:27:22.449Z,100.00
2018-08-28T05:29:50.581Z,100.00
2018-08-28T05:32:18.736Z,100.00
2018-08-28T05:34:46.907Z,100.00
2018-08-28T05:37:15.048Z,100.00
2018-08-28T05:39:43.189Z,100.00
2018-08-28T05:42:11.321Z,100.00
2018-08-28T05:44:39.416Z,100.00
2018-08-28T05:47:08.718Z,100.00
2018-08-28T05:49:36.903Z,100.00
2018-08-28T05:52:05.047Z,100.00
2018-08-28T05:54:33.184Z,100.00
2018-08-28T05:57:01.328Z,99.94
2018-08-28T05:59:29.514Z,99.51
2018-08-28T06:01:57.602Z,99.97
2018-08-28T06:04:25.713Z,99.63
2018-08-28T06:06:53.841Z,99.74
2018-08-28T06:09:21.951Z,98.94
2018-08-28T06:11:50.113Z,98.86
2018-08-28T06:14:18.253Z,98.07
2018-08-28T06:16:46.387Z,97.61
2018-08-28T06:19:14.672Z,97.67
2018-08-28T06:21:42.829Z,97.10
2018-08-28T06:24:10.978Z,97.32
2018-08-28T06:26:39.145Z,96.89
2018-08-28T06:29:08.193Z,96.76
2018-08-28T06:31:36.304Z,96.38
2018-08-28T06:34:04.556Z,96.12
2018-08-28T06:36:32.556Z,96.03
2018-08-28T06:39:00.695Z,95.89
2018-08-28T06:41:29.015Z,96.27
2018-08-28T06:43:57.145Z,95.92
2018-08-28T06:46:25.243Z,96.24
2018-08-28T06:48:53.351Z,96.50
2018-08-28T06:51:21.432Z,96.05
2018-08-28T06:53:49.588Z,95.43
2018-08-28T06:56:17.665Z,95.29
2018-08-28T06:58:45.776Z,94.28
2018-08-28T07:01:13.920Z,94.00
2018-08-28T07:03:42.195Z,93.38
2018-08-28T07:06:10.257Z,93.64
2018-08-28T07:08:38.404Z,94.19
2018-08-28T07:11:06.587Z,93.17
2018-08-28T07:13:34.742Z,92.36
2018-08-28T07:16:02.861Z,92.52
2018-08-28T07:18:30.969Z,91.51
2018-08-28T07:20:59.213Z,92.16
2018-08-28T07:23:27.916Z,92.42
2018-08-28T07:25:56.059Z,92.78
2018-08-28T07:28:24.244Z,93.11
2018-08-28T07:30:52.377Z,92.49
2018-08-28T07:33:20.478Z,91.86
2018-08-28T07:35:48.584Z,90.87
2018-08-28T07:38:16.678Z,91.10
2018-08-28T07:40:44.802Z,90.18
2018-08-28T07:43:12.930Z,89.69
2018-08-28T07:45:41.037Z,90.28
2018-08-28T07:48:09.222Z,88.67
2018-08-28T07:50:37.320Z,88.48
2018-08-28T07:53:05.608Z,88.74
2018-08-28T07:55:33.749Z,88.89
2018-08-28T07:58:01.890Z,88.92
2018-08-28T08:00:30.007Z,86.84
2018-08-28T08:02:58.157Z,86.94
2018-08-28T08:05:26.325Z,85.98
2018-08-28T08:07:54.504Z,86.61
2018-08-28T08:10:22.692Z,87.15
2018-08-28T08:12:50.781Z,87.42
2018-08-28T08:15:18.976Z,87.26
2018-08-28T08:17:47.157Z,86.77
2018-08-28T08:20:15.253Z,86.28
2018-08-28T08:22:43.918Z,85.58
2018-08-28T08:25:12.045Z,85.37
2018-08-28T08:27:40.189Z,85.45
2018-08-28T08:30:08.333Z,84.95
2018-08-28T08:32:36.532Z,85.15
2018-08-28T08:35:04.691Z,84.49
2018-08-28T08:37:32.847Z,85.44
2018-08-28T08:40:01.102Z,84.85
2018-08-28T08:42:29.245Z,85.19
2018-08-28T08:44:57.426Z,85.12
2018-08-28T08:47:25.545Z,84.36
2018-08-28T08:49:53.823Z,84.44
2018-08-28T08:52:21.979Z,85.14
2018-08-28T08:54:50.195Z,85.03
2018-08-28T08:57:18.323Z,85.68
2018-08-28T08:59:46.361Z,85.99
2018-08-28T09:02:14.512Z,84.46
2018-08-28T09:04:42.819Z,83.94
2018-08-28T09:07:10.944Z,83.56
2018-08-28T09:09:39.225Z,82.38
2018-08-28T09:12:07.335Z,82.71
2018-08-28T09:14:35.920Z,82.88
2018-08-28T09:17:04.016Z,82.99
2018-08-28T09:19:32.121Z,81.02
2018-08-28T09:22:00.220Z,81.06
2018-08-28T09:24:28.397Z,79.76
2018-08-28T09:26:56.519Z,78.79
2018-08-28T09:29:24.680Z,78.34
2018-08-28T09:31:52.820Z,77.97
2018-08-28T09:34:20.925Z,78.67
2018-08-28T09:36:49.009Z,76.86
2018-08-28T09:39:17.165Z,76.87
2018-08-28T09:41:45.260Z,75.43
2018-08-28T09:44:13.402Z,74.98
2018-08-28T09:46:41.597Z,74.14
2018-08-28T09:49:09.723Z,73.12
2018-08-28T09:51:37.836Z,73.79
2018-08-28T09:54:05.979Z,72.02
2018-08-28T09:56:34.210Z,71.60
2018-08-28T09:59:02.248Z,71.65
2018-08-28T10:01:35.869Z,74.06
2018-08-28T10:04:03.999Z,72.38
2018-08-28T10:06:32.277Z,73.15
2018-08-28T10:09:00.383Z,72.70
2018-08-28T10:11:28.616Z,72.91
2018-08-28T10:13:56.942Z,71.88
2018-08-28T10:16:25.065Z,71.32
2018-08-28T10:18:53.671Z,71.18
2018-08-28T10:21:21.813Z,71.49
2018-08-28T10:23:49.936Z,69.87
2018-08-28T10:26:18.051Z,71.27
2018-08-28T10:28:46.136Z,72.87
2018-08-28T10:31:14.256Z,72.23
2018-08-28T10:33:42.367Z,72.53
2018-08-28T10:36:10.591Z,72.06
2018-08-28T10:38:38.700Z,72.68
2018-08-28T10:41:06.876Z,72.14
2018-08-28T10:43:35.032Z,71.04
2018-08-28T10:46:03.911Z,70.60
2018-08-28T10:48:31.982Z,69.32
2018-08-28T10:51:00.095Z,68.31
2018-08-28T10:53:28.759Z,69.00
2018-08-28T10:55:56.993Z,68.59
2018-08-28T10:58:25.076Z,68.08
2018-08-28T11:00:53.198Z,68.71
2018-08-28T11:03:21.363Z,67.36
2018-08-28T11:05:49.511Z,68.10
2018-08-28T11:08:17.637Z,68.05
2018-08-28T11:10:45.774Z,67.94
2018-08-28T11:13:14.548Z,68.76
2018-08-28T11:15:42.706Z,69.17
2018-08-28T11:18:10.836Z,70.28
2018-08-28T11:20:38.995Z,71.20
2018-08-28T11:28:07.140Z,71.83
2018-08-28T11:30:35.271Z,71.67
2018-08-28T11:33:03.446Z,70.07
2018-08-28T11:35:31.577Z,70.55
2018-08-28T11:37:59.717Z,71.70
2018-08-28T11:40:27.831Z,71.78
2018-08-28T11:42:55.928Z,72.11
2018-08-28T11:45:24.092Z,71.88
2018-08-28T11:47:52.199Z,73.12
2018-08-28T11:50:20.321Z,72.84
2018-08-28T11:52:48.372Z,72.80
2018-08-28T11:55:16.472Z,73.74
2018-08-28T11:57:44.607Z,73.53
2018-08-28T12:00:13.337Z,74.63
2018-08-28T12:02:41.406Z,73.82
2018-08-28T12:05:09.568Z,73.97
2018-08-28T12:07:37.611Z,74.79
2018-08-28T12:10:05.936Z,75.44
2018-08-28T12:12:34.058Z,75.54
2018-08-28T12:15:02.189Z,75.79
2018-08-28T12:17:30.295Z,76.49
2018-08-28T12:19:58.414Z,75.22
2018-08-28T12:22:26.573Z,76.28
2018-08-28T12:24:54.648Z,76.02
2018-08-28T12:27:22.753Z,73.87
2018-08-28T12:29:51.000Z,74.10
2018-08-28T12:32:19.126Z,74.14
2018-08-28T12:34:47.320Z,73.82
2018-08-28T12:37:15.589Z,73.25
2018-08-28T12:39:43.787Z,74.24
2018-08-28T12:42:11.913Z,75.00
2018-08-28T12:44:40.037Z,74.06
2018-08-28T12:47:08.219Z,73.42
2018-08-28T12:49:36.357Z,74.23
2018-08-28T12:52:04.527Z,73.74
2018-08-28T12:54:32.674Z,72.95
2018-08-28T12:57:00.804Z,73.02
2018-08-28T12:59:28.930Z,72.70
2018-08-28T13:01:57.041Z,72.71
2018-08-28T13:04:25.996Z,72.41
2018-08-28T13:06:54.133Z,73.16
2018-08-28T13:09:22.213Z,72.52
2018-08-28T13:11:50.299Z,72.26
2018-08-28T13:14:18.675Z,73.53
2018-08-28T13:16:46.812Z,72.79
2018-08-28T13:19:14.943Z,73.34
2018-08-28T13:21:43.205Z,71.33
2018-08-28T13:24:11.308Z,71.47
2018-08-28T13:26:39.385Z,72.88
2018-08-28T13:29:07.500Z,72.01
2018-08-28T13:31:35.652Z,70.64
2018-08-28T13:34:03.736Z,69.81
2018-08-28T13:36:31.903Z,70.42
2018-08-28T13:39:00.008Z,69.89
2018-08-28T13:41:28.107Z,68.91
2018-08-28T13:43:56.254Z,69.82
2018-08-28T13:46:24.775Z,69.04
2018-08-28T13:48:53.009Z,70.58
2018-08-28T13:51:27.819Z,70.57
2018-08-28T13:53:56.034Z,70.11
2018-08-28T13:56:24.174Z,70.22
2018-08-28T13:58:52.294Z,72.68
2018-08-28T14:01:20.375Z,72.34
2018-08-28T14:03:48.468Z,71.92
2018-08-28T14:06:16.601Z,73.89
2018-08-28T14:08:44.768Z,73.94
2018-08-28T14:11:12.868Z,74.34
2018-08-28T14:13:41.078Z,73.54
2018-08-28T14:16:09.195Z,72.81
2018-08-28T14:18:37.297Z,73.16
2018-08-28T14:21:05.430Z,72.28
2018-08-28T14:23:33.563Z,72.03
2018-08-28T14:26:01.685Z,72.71
2018-08-28T14:28:29.918Z,72.47
2018-08-28T14:30:58.069Z,72.35
2018-08-28T14:33:26.195Z,72.50
2018-08-28T14:35:54.320Z,72.50
2018-08-28T14:38:22.464Z,71.42
2018-08-28T14:40:50.590Z,70.68
2018-08-28T14:43:18.794Z,70.83
2018-08-28T14:45:47.520Z,71.85
2018-08-28T14:48:15.756Z,71.88
2018-08-28T14:50:43.956Z,71.86
2018-08-28T14:53:12.749Z,70.02
2018-08-28T14:55:40.854Z,71.55
2018-08-28T14:58:09.940Z,70.00
2018-08-28T15:00:38.106Z,70.67
2018-08-28T15:03:06.329Z,71.47
2018-08-28T15:05:34.698Z,70.34
2018-08-28T15:08:03.275Z,69.90
2018-08-28T15:10:31.460Z,70.44
2018-08-28T15:12:59.557Z,70.58
2018-08-28T15:15:27.809Z,70.88
2018-08-28T15:17:55.924Z,70.29
2018-08-28T15:20:24.095Z,70.57
2018-08-28T15:22:52.212Z,70.12
2018-08-28T15:25:20.399Z,69.77
2018-08-28T15:27:48.530Z,70.61
2018-08-28T15:30:16.655Z,69.69
2018-08-28T15:32:44.862Z,71.03
2018-08-28T15:35:12.988Z,72.72
2018-08-28T15:37:41.100Z,71.01
2018-08-28T15:40:09.224Z,70.77
2018-08-28T15:42:37.392Z,68.99
2018-08-28T15:45:05.616Z,69.94
2018-08-28T15:47:33.730Z,69.56
2018-08-28T15:50:01.894Z,69.79
2018-08-28T15:52:30.071Z,70.15
2018-08-28T15:54:58.267Z,69.01
2018-08-28T15:57:26.392Z,68.86
2018-08-28T15:59:54.561Z,69.80
2018-08-28T16:02:22.808Z,71.36
2018-08-28T16:04:50.992Z,71.97
2018-08-28T16:07:19.128Z,71.09
2018-08-28T16:09:47.272Z,71.46
2018-08-28T16:12:15.403Z,70.23
2018-08-28T16:14:43.531Z,67.28
2018-08-28T16:17:11.675Z,67.89
2018-08-28T16:19:39.839Z,68.84
2018-08-28T16:22:08.011Z,68.57
2018-08-28T16:24:36.148Z,68.93
2018-08-28T16:27:04.290Z,69.28
2018-08-28T16:29:32.492Z,71.20
2018-08-28T16:32:00.621Z,69.82
2018-08-28T16:34:28.800Z,70.02
2018-08-28T16:36:56.953Z,71.30
2018-08-28T16:39:25.086Z,70.66
2018-08-28T16:41:53.222Z,71.96
2018-08-28T16:44:21.334Z,72.93
2018-08-28T16:47:52.638Z,74.47
2018-08-28T16:50:20.851Z,74.59
2018-08-28T16:52:48.877Z,75.57
2018-08-28T16:55:17.016Z,75.49
2018-08-28T16:57:45.122Z,75.81
2018-08-28T17:00:13.235Z,76.07
2018-08-28T17:02:41.356Z,76.34
2018-08-28T17:05:09.490Z,76.95
2018-08-28T17:07:37.622Z,77.51
2018-08-28T17:10:05.824Z,76.61
2018-08-28T17:12:33.941Z,77.37
2018-08-28T17:15:02.121Z,77.11
2018-08-28T17:17:30.219Z,76.95
2018-08-28T17:19:58.310Z,76.50
2018-08-28T17:22:26.467Z,76.39
2018-08-28T17:24:54.643Z,77.64
2018-08-28T17:27:22.874Z,76.92
2018-08-28T17:29:51.011Z,77.53
2018-08-28T17:32:19.153Z,78.06
2018-08-28T17:34:47.341Z,78.94
2018-08-28T17:37:15.535Z,75.21
2018-08-28T17:39:43.687Z,76.21
2018-08-28T17:42:11.817Z,74.44
2018-08-28T17:44:40.540Z,76.43
2018-08-28T17:47:08.680Z,75.98
2018-08-28T17:49:36.809Z,75.05
2018-08-28T17:52:04.921Z,78.65
2018-08-28T17:54:33.040Z,79.52
2018-08-28T17:57:01.200Z,78.76
2018-08-28T17:59:29.286Z,79.09
2018-08-28T18:01:57.425Z,79.83
2018-08-28T18:04:25.614Z,80.40
2018-08-28T18:06:53.741Z,81.33
2018-08-28T18:09:21.868Z,80.39
2018-08-28T18:11:50.038Z,80.93
2018-08-28T18:14:18.211Z,80.64
2018-08-28T18:16:46.299Z,80.85
2018-08-28T18:19:14.396Z,80.07
2018-08-28T18:21:42.517Z,79.49
2018-08-28T18:24:10.640Z,80.11
2018-08-28T18:26:38.811Z,79.49
2018-08-28T18:29:13.782Z,79.68
2018-08-28T18:31:41.893Z,80.38
2018-08-28T18:34:10.026Z,80.80
2018-08-28T18:36:38.142Z,81.33
2018-08-28T18:39:07.356Z,81.27
2018-08-28T18:41:35.578Z,82.37
2018-08-28T18:44:03.586Z,81.99
2018-08-28T18:46:31.799Z,81.75
2018-08-28T18:48:59.889Z,81.25
2018-08-28T18:51:28.067Z,81.71
2018-08-28T18:53:56.176Z,81.28
2018-08-28T18:56:24.255Z,81.52
2018-08-28T18:58:52.391Z,82.57
2018-08-28T19:01:20.529Z,81.72
2018-08-28T19:03:48.640Z,82.53
2018-08-28T19:06:16.773Z,83.59
2018-08-28T19:08:44.902Z,82.93
2018-08-28T19:11:12.971Z,80.96
2018-08-28T19:13:41.078Z,81.05
2018-08-28T19:16:09.734Z,82.25
2018-08-28T19:18:37.980Z,83.08
2018-08-28T19:21:06.128Z,82.65
2018-08-28T19:23:34.290Z,82.88
2018-08-28T19:26:02.607Z,83.90
2018-08-28T19:28:30.820Z,83.05
2018-08-28T19:30:59.154Z,83.21
2018-08-28T19:33:27.611Z,83.26
2018-08-28T19:35:55.830Z,84.34
2018-08-28T19:38:23.945Z,83.70
2018-08-28T19:40:52.064Z,83.45
2018-08-28T19:43:20.277Z,84.28
2018-08-28T19:45:48.407Z,83.85
2018-08-28T19:48:16.564Z,84.32
2018-08-28T19:50:44.750Z,84.90
2018-08-28T19:53:12.931Z,84.23
2018-08-28T19:55:41.170Z,84.13
2018-08-28T19:58:09.323Z,83.67
2018-08-28T20:00:37.506Z,84.61
2018-08-28T20:03:05.667Z,84.43
2018-08-28T20:05:33.898Z,83.36
2018-08-28T20:08:02.172Z,83.56
2018-08-28T20:10:30.326Z,84.41
2018-08-28T20:12:58.490Z,84.67
2018-08-28T20:15:26.609Z,85.01
2018-08-28T20:17:54.863Z,86.03
2018-08-28T20:20:23.027Z,86.13
2018-08-28T20:22:51.171Z,85.38
2018-08-28T20:25:19.301Z,85.76
2018-08-28T20:27:47.447Z,85.16
2018-08-28T20:30:15.594Z,84.31
2018-08-28T20:32:43.779Z,85.35
2018-08-28T20:35:11.895Z,85.30
2018-08-28T20:37:40.158Z,85.20
2018-08-28T20:40:08.353Z,86.85
2018-08-28T20:42:36.552Z,87.10
2018-08-28T20:45:04.792Z,85.09
2018-08-28T20:47:32.939Z,86.46
2018-08-28T20:50:01.115Z,84.35
2018-08-28T20:52:29.275Z,83.19
2018-08-28T20:54:57.452Z,82.65
2018-08-28T20:57:25.623Z,82.67
2018-08-28T20:59:53.767Z,84.82
2018-08-28T21:02:22.018Z,85.22
2018-08-28T21:04:50.178Z,84.95
2018-08-28T21:07:18.380Z,84.59
2018-08-28T21:09:46.629Z,85.07
2018-08-28T21:12:14.818Z,84.38
2018-08-28T21:14:42.895Z,84.16
2018-08-28T21:17:10.960Z,84.10
2018-08-28T21:19:39.078Z,84.63
2018-08-28T21:22:07.180Z,85.97
2018-08-28T21:24:35.294Z,85.54
2018-08-28T21:27:03.395Z,84.37
2018-08-28T21:29:31.619Z,84.48
2018-08-28T21:31:59.674Z,85.86
2018-08-28T21:34:27.812Z,84.25
2018-08-28T21:36:55.964Z,86.28
2018-08-28T21:39:24.115Z,84.53
2018-08-28T21:41:52.252Z,86.85
2018-08-28T21:44:20.391Z,85.81
2018-08-28T21:46:48.549Z,86.75
2018-08-28T21:49:16.716Z,87.50
2018-08-28T21:51:44.820Z,86.96
2018-08-28T21:54:12.909Z,87.70
2018-08-28T21:56:41.083Z,87.15
2018-08-28T21:59:09.196Z,85.83
2018-08-28T22:01:37.297Z,86.65
2018-08-28T22:04:05.396Z,87.40
2018-08-28T22:06:38.748Z,87.19
2018-08-28T22:09:06.835Z,86.61
2018-08-28T22:11:35.284Z,86.26
2018-08-28T22:14:03.464Z,86.90
2018-08-28T22:16:31.592Z,87.05
2018-08-28T22:18:59.795Z,87.51
2018-08-28T22:21:27.897Z,88.61
2018-08-28T22:23:55.994Z,87.08
2018-08-28T22:26:24.091Z,86.60
2018-08-28T22:28:52.200Z,87.25
2018-08-28T22:31:20.302Z,87.05
2018-08-28T22:33:48.417Z,87.91
2018-08-28T22:36:16.540Z,88.27
2018-08-28T22:38:44.678Z,89.24
2018-08-28T22:41:12.837Z,89.00
2018-08-28T22:43:42.127Z,90.24
2018-08-28T22:46:10.285Z,90.29
2018-08-28T22:48:38.527Z,90.64
2018-08-28T22:51:06.658Z,88.77
2018-08-28T22:53:34.761Z,89.86
2018-08-28T22:56:02.900Z,90.08
2018-08-28T22:58:31.037Z,90.30
2018-08-28T23:00:59.151Z,90.25
2018-08-28T23:03:27.230Z,91.34
2018-08-28T23:05:55.305Z,91.40
2018-08-28T23:08:23.460Z,91.38
2018-08-28T23:10:51.626Z,90.97
2018-08-28T23:13:19.741Z,91.93
2018-08-28T23:15:47.831Z,92.31
2018-08-28T23:18:15.946Z,92.46
2018-08-28T23:20:44.076Z,92.64
2018-08-28T23:23:12.204Z,92.98
2018-08-28T23:25:40.305Z,92.19
2018-08-28T23:28:08.433Z,92.45
2018-08-28T23:30:36.597Z,92.06
2018-08-28T23:33:04.708Z,92.34
2018-08-28T23:35:32.851Z,91.79
2018-08-28T23:38:00.974Z,91.71
2018-08-28T23:40:29.094Z,92.44
2018-08-28T23:42:58.218Z,92.25
2018-08-28T23:45:26.318Z,92.54
2018-08-28T23:47:54.411Z,92.62
2018-08-28T23:50:22.558Z,93.05
2018-08-28T23:52:50.739Z,93.51
2018-08-28T23:55:18.899Z,94.08
2018-08-28T23:57:47.047Z,94.72
